Wednesday, April 23, 2014, 12:56 PM EDT

KSBY, Salisbury-wicomico Cty Reg

Location: Salisbury, MD, United States Lat: 38.333
Local Time: 12:56 PM EDT (16:56 GMT) Lon: -75.5
Time Zone: US/Eastern Elev: 52 ft

Show me the last for .
Show Decoded

2014-04-23 11:54 METAR KSBY 231554Z 31019G27KT 10SM CLR 16/01 A2974 RMK AO2 PK WND 32031/1526
                 SLP074 T01560011 $ =
2014-04-23 10:54 METAR KSBY 231454Z 31018G32KT 10SM CLR 14/01 A2974 RMK AO2 PK WND 32034/1404
                 SLP072 T01440011 53013 =
2014-04-23 09:54 METAR KSBY 231354Z 33021G31KT 10SM CLR 14/02 A2972 RMK AO2 PK WND 33034/1328
                 SLP066 T01440017 =
2014-04-23 08:54 METAR KSBY 231254Z 31014G29KT 10SM CLR 14/02 A2970 RMK AO2 PK WND 32034/1234
                 SLP060 T01390017 =
2014-04-23 07:54 METAR KSBY 231154Z 32016G24KT 10SM CLR 12/02 A2970 RMK AO2 SLP058 T01220017
                 10161 20106 51012 =
2014-04-23 06:54 METAR KSBY 231054Z 32009KT 10SM CLR 11/02 A2969 RMK AO2 SLP056 T01110017 =
2014-04-23 05:54 METAR KSBY 230954Z 33009KT 10SM FEW060 SCT075 11/02 A2968 RMK AO2 PK WND
                 31026/0905 SLP051 T01110022 =
2014-04-23 04:54 METAR KSBY 230854Z AUTO 31016G27KT 10SM OVC055 13/01 A2966 RMK AO2 PK WND
                 32027/0848 SLP047 T01330011 53016 =
2014-04-23 03:54 METAR KSBY 230754Z AUTO 32016G24KT 10SM SCT049 14/03 A2965 RMK AO2 PK WND
                 34028/0733 SLP043 T01390033 =
2014-04-23 02:54 METAR KSBY 230654Z AUTO 33014G20KT 10SM SCT043 BKN085 16/10 A2962 RMK AO2 SLP032
                 T01560100 =
2014-04-23 01:54 METAR KSBY 230554Z AUTO 34004KT 8SM FEW065 BKN090 15/13 A2962 RMK AO2 RAE28
                 SLP031 P0000 60000 T01500128 10200 20139 50005 =
2014-04-23 00:54 METAR KSBY 230454Z AUTO 26007KT 10SM -RA BKN065 OVC090 16/13 A2963 RMK AO2 RAB12
                 SLP035 P0000 T01610128 402610050 =
2014-04-22 23:54 METAR KSBY 230354Z AUTO 00000KT 10SM BKN100 15/11 A2961 RMK AO2 SLP027 T01500111
                 =
2014-04-22 22:54 METAR KSBY 230254Z AUTO 00000KT 10SM CLR 14/11 A2960 RMK AO2 SLP026 T01440111
                 50004 =
2014-04-22 21:54 METAR KSBY 230154Z 00000KT 10SM FEW070 17/12 A2961 RMK AO2 SLP030 T01670117 =
2014-04-22 20:54 METAR KSBY 230054Z 00000KT 10SM BKN080 BKN110 19/12 A2961 RMK AO2 SLP030
                 T01890117 =
2014-04-22 19:54 METAR KSBY 222354Z 00000KT 10SM BKN100 OVC110 19/12 A2959 RMK AO2 SLP022 60000
                 T01940122 10261 20194 58004 =
2014-04-22 18:54 METAR KSBY 222254Z 00000KT 10SM OVC080 22/11 A2959 RMK AO2 RAB24E40 SLP023 P0000
                 T02170106 =
2014-04-22 17:54 METAR KSBY 222154Z 31009KT 10SM OVC095 23/10 A2960 RMK AO2 SLP026 T02330100 =
2014-04-22 16:54 METAR KSBY 222054Z 28008KT 10SM BKN100 24/09 A2960 RMK AO2 SLP026 T02390089
                 56013 =
2014-04-22 15:54 METAR KSBY 221954Z 26008KT 10SM CLR 25/09 A2961 =
2014-04-22 14:54 METAR KSBY 221854Z 23010G16KT 10SM CLR 26/08 A2962 RMK AO2 SLP031 T02560078 =
2014-04-22 13:54 METAR KSBY 221754Z 20016G21KT 10SM CLR 26/06 A2964 RMK AO2 SLP039 T02560061
                 10256 20111 56026 =

Support USWX by starting your Amazon purchase here.